sensor_id;sensor_type;location;lat;lon;timestamp;temperature;humidity
9925;DHT22;5001;51.674;7.868;2022-09-17T00:01:09;13.20;1.00
9925;DHT22;5001;51.674;7.868;2022-09-17T00:03:40;13.30;1.00
9925;DHT22;5001;51.674;7.868;2022-09-17T00:06:09;13.40;1.00
9925;DHT22;5001;51.674;7.868;2022-09-17T00:08:39;13.40;1.00
9925;DHT22;5001;51.674;7.868;2022-09-17T00:11:12;13.40;1.00
9925;DHT22;5001;51.674;7.868;2022-09-17T00:13:41;13.60;99.90
9925;DHT22;5001;51.674;7.868;2022-09-17T00:16:08;13.70;1.00
9925;DHT22;5001;51.674;7.868;2022-09-17T00:18:36;13.30;99.90
9925;DHT22;5001;51.674;7.868;2022-09-17T00:21:14;13.20;1.00
9925;DHT22;5001;51.674;7.868;2022-09-17T00:23:41;13.40;17.90
9925;DHT22;5001;51.674;7.868;2022-09-17T00:26:08;13.50;1.00
9925;DHT22;5001;51.674;7.868;2022-09-17T00:28:35;13.60;1.00
9925;DHT22;5001;51.674;7.868;2022-09-17T00:31:08;13.60;1.00
9925;DHT22;5001;51.674;7.868;2022-09-17T00:33:36;13.40;1.00
9925;DHT22;5001;51.674;7.868;2022-09-17T00:36:04;13.40;1.00
9925;DHT22;5001;51.674;7.868;2022-09-17T00:38:31;13.10;1.00
9925;DHT22;5001;51.674;7.868;2022-09-17T00:40:59;12.90;99.90
9925;DHT22;5001;51.674;7.868;2022-09-17T00:43:38;13.10;1.00
9925;DHT22;5001;51.674;7.868;2022-09-17T00:46:33;13.10;83.00
9925;DHT22;5001;51.674;7.868;2022-09-17T00:49:05;13.40;1.00
9925;DHT22;5001;51.674;7.868;2022-09-17T00:51:36;13.50;1.00
9925;DHT22;5001;51.674;7.868;2022-09-17T00:54:05;13.50;1.00
9925;DHT22;5001;51.674;7.868;2022-09-17T00:56:34;13.40;1.00
9925;DHT22;5001;51.674;7.868;2022-09-17T00:59:02;13.30;1.00
9925;DHT22;5001;51.674;7.868;2022-09-17T01:01:30;13.50;99.90
9925;DHT22;5001;51.674;7.868;2022-09-17T01:03:58;13.40;1.00
9925;DHT22;5001;51.674;7.868;2022-09-17T01:06:40;13.20;1.00
9925;DHT22;5001;51.674;7.868;2022-09-17T01:09:33;13.00;22.10
9925;DHT22;5001;51.674;7.868;2022-09-17T01:12:58;13.20;1.00
9925;DHT22;5001;51.674;7.868;2022-09-17T01:18:49;13.20;1.00
9925;DHT22;5001;51.674;7.868;2022-09-17T01:27:32;13.30;1.00
9925;DHT22;5001;51.674;7.868;2022-09-17T01:33:17;13.20;1.00
9925;DHT22;5001;51.674;7.868;2022-09-17T01:35:52;13.00;1.00
9925;DHT22;5001;51.674;7.868;2022-09-17T01:41:20;13.10;1.00
9925;DHT22;5001;51.674;7.868;2022-09-17T01:44:09;12.80;1.00
9925;DHT22;5001;51.674;7.868;2022-09-17T01:46:43;12.90;1.00
9925;DHT22;5001;51.674;7.868;2022-09-17T01:49:14;13.00;1.00
9925;DHT22;5001;51.674;7.868;2022-09-17T01:51:45;12.70;99.90
9925;DHT22;5001;51.674;7.868;2022-09-17T01:54:19;12.80;99.90
9925;DHT22;5001;51.674;7.868;2022-09-17T01:57:28;12.80;1.00
9925;DHT22;5001;51.674;7.868;2022-09-17T02:00:07;12.90;1.00
9925;DHT22;5001;51.674;7.868;2022-09-17T02:02:47;13.20;99.90
9925;DHT22;5001;51.674;7.868;2022-09-17T02:05:24;13.10;99.90
9925;DHT22;5001;51.674;7.868;2022-09-17T02:08:10;12.70;1.00
9925;DHT22;5001;51.674;7.868;2022-09-17T02:10:45;13.00;1.00
9925;DHT22;5001;51.674;7.868;2022-09-17T02:13:18;13.30;99.90
9925;DHT22;5001;51.674;7.868;2022-09-17T02:15:51;12.90;99.90
9925;DHT22;5001;51.674;7.868;2022-09-17T02:18:25;12.70;1.00
9925;DHT22;5001;51.674;7.868;2022-09-17T02:21:10;12.80;1.00
9925;DHT22;5001;51.674;7.868;2022-09-17T02:23:55;13.00;1.00
9925;DHT22;5001;51.674;7.868;2022-09-17T02:26:25;12.40;1.00
9925;DHT22;5001;51.674;7.868;2022-09-17T02:28:57;12.30;26.60
9925;DHT22;5001;51.674;7.868;2022-09-17T02:31:25;12.40;99.90
9925;DHT22;5001;51.674;7.868;2022-09-17T02:33:56;12.50;1.00
9925;DHT22;5001;51.674;7.868;2022-09-17T02:36:26;12.30;1.00
9925;DHT22;5001;51.674;7.868;2022-09-17T02:38:58;12.30;1.00
9925;DHT22;5001;51.674;7.868;2022-09-17T02:47:55;12.00;1.00
9925;DHT22;5001;51.674;7.868;2022-09-17T02:56:16;11.70;1.00
9925;DHT22;5001;51.674;7.868;2022-09-17T02:59:05;11.90;99.90
9925;DHT22;5001;51.674;7.868;2022-09-17T03:01:39;11.80;99.90
9925;DHT22;5001;51.674;7.868;2022-09-17T03:04:11;11.80;58.20
9925;DHT22;5001;51.674;7.868;2022-09-17T03:06:44;11.80;1.00
9925;DHT22;5001;51.674;7.868;2022-09-17T03:09:14;11.70;1.00
9925;DHT22;5001;51.674;7.868;2022-09-17T03:11:41;12.00;99.90
9925;DHT22;5001;51.674;7.868;2022-09-17T03:14:08;12.20;1.00
9925;DHT22;5001;51.674;7.868;2022-09-17T03:16:35;12.10;99.90
9925;DHT22;5001;51.674;7.868;2022-09-17T03:19:03;12.40;1.00
9925;DHT22;5001;51.674;7.868;2022-09-17T03:21:30;12.60;99.90
9925;DHT22;5001;51.674;7.868;2022-09-17T03:23:57;12.60;99.90
9925;DHT22;5001;51.674;7.868;2022-09-17T03:26:26;12.70;99.90
9925;DHT22;5001;51.674;7.868;2022-09-17T03:28:54;12.60;1.00
9925;DHT22;5001;51.674;7.868;2022-09-17T03:31:21;12.40;99.90
9925;DHT22;5001;51.674;7.868;2022-09-17T03:33:48;12.40;99.90
9925;DHT22;5001;51.674;7.868;2022-09-17T03:36:18;12.20;99.90
9925;DHT22;5001;51.674;7.868;2022-09-17T03:38:45;12.30;97.00
9925;DHT22;5001;51.674;7.868;2022-09-17T03:41:12;12.00;99.90
9925;DHT22;5001;51.674;7.868;2022-09-17T03:43:39;11.80;99.90
9925;DHT22;5001;51.674;7.868;2022-09-17T03:46:06;11.30;1.00
9925;DHT22;5001;51.674;7.868;2022-09-17T03:48:33;11.10;32.90
9925;DHT22;5001;51.674;7.868;2022-09-17T03:51:03;11.30;1.00
9925;DHT22;5001;51.674;7.868;2022-09-17T03:53:30;11.30;99.90
9925;DHT22;5001;51.674;7.868;2022-09-17T03:55:58;11.30;1.00
9925;DHT22;5001;51.674;7.868;2022-09-17T03:58:27;11.30;99.90
9925;DHT22;5001;51.674;7.868;2022-09-17T04:00:54;10.90;1.00
9925;DHT22;5001;51.674;7.868;2022-09-17T04:03:25;10.80;99.90
9925;DHT22;5001;51.674;7.868;2022-09-17T04:05:53;11.10;99.90
9925;DHT22;5001;51.674;7.868;2022-09-17T04:08:20;11.10;1.00
9925;DHT22;5001;51.674;7.868;2022-09-17T04:10:47;11.00;1.00
9925;DHT22;5001;51.674;7.868;2022-09-17T04:13:15;10.90;99.90
9925;DHT22;5001;51.674;7.868;2022-09-17T04:15:43;10.80;59.80
9925;DHT22;5001;51.674;7.868;2022-09-17T04:18:10;11.00;99.90
9925;DHT22;5001;51.674;7.868;2022-09-17T04:20:38;10.90;1.00
9925;DHT22;5001;51.674;7.868;2022-09-17T04:23:05;11.30;1.00
9925;DHT22;5001;51.674;7.868;2022-09-17T04:25:33;11.60;1.00
9925;DHT22;5001;51.674;7.868;2022-09-17T04:28:00;11.80;1.00
9925;DHT22;5001;51.674;7.868;2022-09-17T04:30:27;11.90;99.90
9925;DHT22;5001;51.674;7.868;2022-09-17T04:32:53;12.00;99.90
9925;DHT22;5001;51.674;7.868;2022-09-17T04:35:20;12.00;1.00
9925;DHT22;5001;51.674;7.868;2022-09-17T04:37:52;12.20;1.00
9925;DHT22;5001;51.674;7.868;2022-09-17T04:40:20;12.10;1.00
9925;DHT22;5001;51.674;7.868;2022-09-17T04:42:51;11.80;1.00
9925;DHT22;5001;51.674;7.868;2022-09-17T04:45:19;11.80;1.00
9925;DHT22;5001;51.674;7.868;2022-09-17T04:47:46;11.50;1.00
9925;DHT22;5001;51.674;7.868;2022-09-17T04:50:13;11.30;99.90
9925;DHT22;5001;51.674;7.868;2022-09-17T04:52:43;11.40;99.90
9925;DHT22;5001;51.674;7.868;2022-09-17T04:55:11;11.20;99.90
9925;DHT22;5001;51.674;7.868;2022-09-17T04:57:41;11.00;99.90
9925;DHT22;5001;51.674;7.868;2022-09-17T05:00:11;10.80;1.00
9925;DHT22;5001;51.674;7.868;2022-09-17T05:02:38;10.70;1.00
9925;DHT22;5001;51.674;7.868;2022-09-17T05:05:05;10.70;99.90
9925;DHT22;5001;51.674;7.868;2022-09-17T05:07:32;11.00;1.00
9925;DHT22;5001;51.674;7.868;2022-09-17T05:09:59;11.10;1.00
9925;DHT22;5001;51.674;7.868;2022-09-17T05:12:26;10.90;1.00
9925;DHT22;5001;51.674;7.868;2022-09-17T05:14:59;10.90;1.00
9925;DHT22;5001;51.674;7.868;2022-09-17T05:17:27;10.90;99.90
9925;DHT22;5001;51.674;7.868;2022-09-17T05:19:53;11.00;1.00
9925;DHT22;5001;51.674;7.868;2022-09-17T05:22:20;11.00;99.90
9925;DHT22;5001;51.674;7.868;2022-09-17T05:24:47;10.90;99.90
9925;DHT22;5001;51.674;7.868;2022-09-17T05:27:14;11.20;1.00
9925;DHT22;5001;51.674;7.868;2022-09-17T05:29:41;11.30;99.90
9925;DHT22;5001;51.674;7.868;2022-09-17T05:32:08;11.30;99.90
9925;DHT22;5001;51.674;7.868;2022-09-17T05:34:35;11.90;99.90
9925;DHT22;5001;51.674;7.868;2022-09-17T05:37:02;12.50;1.00
9925;DHT22;5001;51.674;7.868;2022-09-17T05:39:29;12.50;1.00
9925;DHT22;5001;51.674;7.868;2022-09-17T05:41:56;12.50;99.90
9925;DHT22;5001;51.674;7.868;2022-09-17T05:44:23;12.80;99.90
9925;DHT22;5001;51.674;7.868;2022-09-17T05:46:52;12.60;99.90
9925;DHT22;5001;51.674;7.868;2022-09-17T05:49:19;12.60;19.20
9925;DHT22;5001;51.674;7.868;2022-09-17T05:51:46;12.40;99.90
9925;DHT22;5001;51.674;7.868;2022-09-17T05:54:13;12.50;99.90
9925;DHT22;5001;51.674;7.868;2022-09-17T05:56:40;13.20;1.00
9925;DHT22;5001;51.674;7.868;2022-09-17T05:59:07;13.00;1.00
9925;DHT22;5001;51.674;7.868;2022-09-17T06:01:34;13.00;1.00
9925;DHT22;5001;51.674;7.868;2022-09-17T06:04:01;13.80;1.00
9925;DHT22;5001;51.674;7.868;2022-09-17T06:06:30;14.80;99.90
9925;DHT22;5001;51.674;7.868;2022-09-17T06:09:00;16.10;1.00
9925;DHT22;5001;51.674;7.868;2022-09-17T06:11:27;17.50;1.00
9925;DHT22;5001;51.674;7.868;2022-09-17T06:13:54;18.90;99.90
9925;DHT22;5001;51.674;7.868;2022-09-17T06:16:22;19.70;99.90
9925;DHT22;5001;51.674;7.868;2022-09-17T06:18:50;20.80;95.90
9925;DHT22;5001;51.674;7.868;2022-09-17T06:21:19;21.00;93.90
9925;DHT22;5001;51.674;7.868;2022-09-17T06:23:50;22.00;6.90
9925;DHT22;5001;51.674;7.868;2022-09-17T06:26:18;21.50;42.50
9925;DHT22;5001;51.674;7.868;2022-09-17T06:28:45;20.20;86.50
9925;DHT22;5001;51.674;7.868;2022-09-17T06:31:12;18.70;99.90
9925;DHT22;5001;51.674;7.868;2022-09-17T06:33:40;17.10;99.90
9925;DHT22;5001;51.674;7.868;2022-09-17T06:36:08;16.10;1.00
9925;DHT22;5001;51.674;7.868;2022-09-17T06:38:40;15.40;1.00
9925;DHT22;5001;51.674;7.868;2022-09-17T06:41:07;15.40;1.00
9925;DHT22;5001;51.674;7.868;2022-09-17T06:43:34;15.50;1.00
9925;DHT22;5001;51.674;7.868;2022-09-17T06:46:03;16.80;1.00
9925;DHT22;5001;51.674;7.868;2022-09-17T06:48:33;18.60;99.90
9925;DHT22;5001;51.674;7.868;2022-09-17T06:51:02;18.60;99.90
9925;DHT22;5001;51.674;7.868;2022-09-17T06:53:30;17.80;99.90
9925;DHT22;5001;51.674;7.868;2022-09-17T06:55:58;17.00;99.90
9925;DHT22;5001;51.674;7.868;2022-09-17T06:58:33;16.80;99.90
9925;DHT22;5001;51.674;7.868;2022-09-17T07:01:00;16.70;1.00
9925;DHT22;5001;51.674;7.868;2022-09-17T07:03:29;16.90;99.90
9925;DHT22;5001;51.674;7.868;2022-09-17T07:05:57;18.00;99.90
9925;DHT22;5001;51.674;7.868;2022-09-17T07:08:24;17.70;99.90
9925;DHT22;5001;51.674;7.868;2022-09-17T07:10:55;17.40;99.90
9925;DHT22;5001;51.674;7.868;2022-09-17T07:13:22;18.00;99.90
9925;DHT22;5001;51.674;7.868;2022-09-17T07:15:54;19.60;56.60
9925;DHT22;5001;51.674;7.868;2022-09-17T07:18:21;22.00;1.00
9925;DHT22;5001;51.674;7.868;2022-09-17T07:21:09;23.50;1.00
9925;DHT22;5001;51.674;7.868;2022-09-17T07:23:36;25.20;1.00
9925;DHT22;5001;51.674;7.868;2022-09-17T07:26:06;25.90;1.00
9925;DHT22;5001;51.674;7.868;2022-09-17T07:28:34;26.10;1.00
9925;DHT22;5001;51.674;7.868;2022-09-17T07:31:04;26.80;1.00
9925;DHT22;5001;51.674;7.868;2022-09-17T07:33:32;26.40;1.00
9925;DHT22;5001;51.674;7.868;2022-09-17T07:36:01;23.20;1.00
9925;DHT22;5001;51.674;7.868;2022-09-17T07:38:29;22.60;1.00
9925;DHT22;5001;51.674;7.868;2022-09-17T07:41:10;23.70;1.00
9925;DHT22;5001;51.674;7.868;2022-09-17T07:43:42;23.70;1.00
9925;DHT22;5001;51.674;7.868;2022-09-17T07:46:14;20.80;1.00
9925;DHT22;5001;51.674;7.868;2022-09-17T07:48:41;18.80;16.60
9925;DHT22;5001;51.674;7.868;2022-09-17T07:51:17;18.40;85.20
9925;DHT22;5001;51.674;7.868;2022-09-17T07:53:45;18.50;71.90
9925;DHT22;5001;51.674;7.868;2022-09-17T07:56:13;18.30;98.10
9925;DHT22;5001;51.674;7.868;2022-09-17T07:58:40;17.90;99.90
9925;DHT22;5001;51.674;7.868;2022-09-17T08:01:09;20.20;1.00
9925;DHT22;5001;51.674;7.868;2022-09-17T08:03:38;23.50;1.00
9925;DHT22;5001;51.674;7.868;2022-09-17T08:06:15;27.20;1.00
9925;DHT22;5001;51.674;7.868;2022-09-17T08:08:42;30.10;1.00
9925;DHT22;5001;51.674;7.868;2022-09-17T08:11:21;30.30;1.00
9925;DHT22;5001;51.674;7.868;2022-09-17T08:14:14;30.20;1.00
9925;DHT22;5001;51.674;7.868;2022-09-17T08:16:42;30.60;1.00
9925;DHT22;5001;51.674;7.868;2022-09-17T08:19:11;31.00;1.00
9925;DHT22;5001;51.674;7.868;2022-09-17T08:21:38;30.00;1.00
9925;DHT22;5001;51.674;7.868;2022-09-17T08:24:05;31.00;1.00
9925;DHT22;5001;51.674;7.868;2022-09-17T08:26:32;32.30;1.00
9925;DHT22;5001;51.674;7.868;2022-09-17T08:28:59;28.30;1.00
9925;DHT22;5001;51.674;7.868;2022-09-17T08:31:26;30.00;1.00
9925;DHT22;5001;51.674;7.868;2022-09-17T08:33:56;31.40;1.00
9925;DHT22;5001;51.674;7.868;2022-09-17T08:36:23;31.10;1.00
9925;DHT22;5001;51.674;7.868;2022-09-17T08:38:53;29.50;1.00
9925;DHT22;5001;51.674;7.868;2022-09-17T08:41:31;29.60;1.00
9925;DHT22;5001;51.674;7.868;2022-09-17T08:46:51;28.10;1.00
9925;DHT22;5001;51.674;7.868;2022-09-17T08:49:40;27.20;1.00
9925;DHT22;5001;51.674;7.868;2022-09-17T08:52:22;28.00;1.00
9925;DHT22;5001;51.674;7.868;2022-09-17T09:00:12;24.60;1.00
9925;DHT22;5001;51.674;7.868;2022-09-17T09:05:45;24.60;1.00
9925;DHT22;5001;51.674;7.868;2022-09-17T09:11:33;28.00;1.00
9925;DHT22;5001;51.674;7.868;2022-09-17T09:16:43;25.70;1.00
9925;DHT22;5001;51.674;7.868;2022-09-17T09:19:30;24.40;1.00
9925;DHT22;5001;51.674;7.868;2022-09-17T09:27:55;24.10;1.00
9925;DHT22;5001;51.674;7.868;2022-09-17T09:30:37;27.00;1.00
9925;DHT22;5001;51.674;7.868;2022-09-17T09:33:13;25.50;1.00
9925;DHT22;5001;51.674;7.868;2022-09-17T09:35:41;29.60;1.00
9925;DHT22;5001;51.674;7.868;2022-09-17T09:40:59;31.60;1.00
9925;DHT22;5001;51.674;7.868;2022-09-17T09:44:11;28.10;1.00
9925;DHT22;5001;51.674;7.868;2022-09-17T09:57:49;28.10;1.00
9925;DHT22;5001;51.674;7.868;2022-09-17T10:00:36;27.60;1.00
9925;DHT22;5001;51.674;7.868;2022-09-17T10:03:21;24.80;1.00
9925;DHT22;5001;51.674;7.868;2022-09-17T10:06:07;22.90;1.00
9925;DHT22;5001;51.674;7.868;2022-09-17T10:08:40;26.10;1.00
9925;DHT22;5001;51.674;7.868;2022-09-17T10:13:36;22.70;1.00
9925;DHT22;5001;51.674;7.868;2022-09-17T10:16:26;20.60;1.00
9925;DHT22;5001;51.674;7.868;2022-09-17T10:21:37;22.60;1.00
9925;DHT22;5001;51.674;7.868;2022-09-17T10:24:19;25.50;1.00
9925;DHT22;5001;51.674;7.868;2022-09-17T10:26:47;29.60;1.00
9925;DHT22;5001;51.674;7.868;2022-09-17T10:29:18;26.20;1.00
9925;DHT22;5001;51.674;7.868;2022-09-17T10:31:52;23.10;1.00
9925;DHT22;5001;51.674;7.868;2022-09-17T10:34:25;20.20;1.00
9925;DHT22;5001;51.674;7.868;2022-09-17T10:36:53;18.60;37.90
9925;DHT22;5001;51.674;7.868;2022-09-17T10:44:37;23.20;1.00
9925;DHT22;5001;51.674;7.868;2022-09-17T10:49:55;29.20;1.00
9925;DHT22;5001;51.674;7.868;2022-09-17T10:52:33;29.80;1.00
9925;DHT22;5001;51.674;7.868;2022-09-17T11:17:49;21.70;1.00
9925;DHT22;5001;51.674;7.868;2022-09-17T11:31:08;25.30;1.00
9925;DHT22;5001;51.674;7.868;2022-09-17T11:37:01;26.60;1.00
9925;DHT22;5001;51.674;7.868;2022-09-17T11:39:58;26.90;1.00
9925;DHT22;5001;51.674;7.868;2022-09-17T11:42:46;26.50;1.00
9925;DHT22;5001;51.674;7.868;2022-09-17T11:45:36;25.50;1.00
9925;DHT22;5001;51.674;7.868;2022-09-17T11:48:15;25.00;1.00
9925;DHT22;5001;51.674;7.868;2022-09-17T11:50:56;25.20;1.00
9925;DHT22;5001;51.674;7.868;2022-09-17T11:53:45;25.40;1.00
9925;DHT22;5001;51.674;7.868;2022-09-17T11:56:22;24.80;1.00
9925;DHT22;5001;51.674;7.868;2022-09-17T12:01:52;23.80;1.00
9925;DHT22;5001;51.674;7.868;2022-09-17T12:09:41;20.50;1.00
9925;DHT22;5001;51.674;7.868;2022-09-17T12:12:23;21.30;1.00
9925;DHT22;5001;51.674;7.868;2022-09-17T12:15:17;21.30;1.00
9925;DHT22;5001;51.674;7.868;2022-09-17T12:18:15;21.40;1.00
9925;DHT22;5001;51.674;7.868;2022-09-17T12:20:59;22.30;1.00
9925;DHT22;5001;51.674;7.868;2022-09-17T12:23:35;22.00;1.00
9925;DHT22;5001;51.674;7.868;2022-09-17T12:26:32;21.70;1.00
9925;DHT22;5001;51.674;7.868;2022-09-17T12:43:00;19.30;1.00
9925;DHT22;5001;51.674;7.868;2022-09-17T12:54:40;18.60;1.00
9925;DHT22;5001;51.674;7.868;2022-09-17T13:00:14;19.50;1.00
9925;DHT22;5001;51.674;7.868;2022-09-17T13:08:29;19.70;1.00
9925;DHT22;5001;51.674;7.868;2022-09-17T13:14:23;18.50;79.90
9925;DHT22;5001;51.674;7.868;2022-09-17T13:17:08;17.00;99.90
9925;DHT22;5001;51.674;7.868;2022-09-17T13:19:55;16.40;99.90
9925;DHT22;5001;51.674;7.868;2022-09-17T13:22:30;16.10;1.00
9925;DHT22;5001;51.674;7.868;2022-09-17T13:25:05;16.20;99.90
9925;DHT22;5001;51.674;7.868;2022-09-17T13:27:33;16.20;1.00
9925;DHT22;5001;51.674;7.868;2022-09-17T13:30:05;16.70;99.90
9925;DHT22;5001;51.674;7.868;2022-09-17T13:37:37;16.90;99.90
9925;DHT22;5001;51.674;7.868;2022-09-17T13:40:20;16.90;99.90
9925;DHT22;5001;51.674;7.868;2022-09-17T13:42:51;16.70;99.90
9925;DHT22;5001;51.674;7.868;2022-09-17T13:45:22;16.80;99.90
9925;DHT22;5001;51.674;7.868;2022-09-17T13:47:55;16.90;99.90
9925;DHT22;5001;51.674;7.868;2022-09-17T13:50:34;17.00;99.90
9925;DHT22;5001;51.674;7.868;2022-09-17T14:08:47;17.50;99.90
9925;DHT22;5001;51.674;7.868;2022-09-17T14:24:37;17.80;90.20
9925;DHT22;5001;51.674;7.868;2022-09-17T14:30:17;17.70;29.80
9925;DHT22;5001;51.674;7.868;2022-09-17T14:38:22;18.20;1.00
9925;DHT22;5001;51.674;7.868;2022-09-17T14:46:26;17.10;95.00
9925;DHT22;5001;51.674;7.868;2022-09-17T14:49:11;17.00;99.90
9925;DHT22;5001;51.674;7.868;2022-09-17T14:51:39;16.90;99.90
9925;DHT22;5001;51.674;7.868;2022-09-17T14:54:12;16.80;99.90
9925;DHT22;5001;51.674;7.868;2022-09-17T14:56:53;16.80;99.90
9925;DHT22;5001;51.674;7.868;2022-09-17T14:59:42;16.70;99.90
9925;DHT22;5001;51.674;7.868;2022-09-17T15:02:22;16.80;99.90
9925;DHT22;5001;51.674;7.868;2022-09-17T15:04:52;17.20;99.90
9925;DHT22;5001;51.674;7.868;2022-09-17T15:07:20;17.60;99.90
9925;DHT22;5001;51.674;7.868;2022-09-17T15:09:48;17.60;99.90
9925;DHT22;5001;51.674;7.868;2022-09-17T15:12:27;17.50;99.90
9925;DHT22;5001;51.674;7.868;2022-09-17T15:14:56;17.40;99.90
9925;DHT22;5001;51.674;7.868;2022-09-17T15:17:24;17.10;64.30
9925;DHT22;5001;51.674;7.868;2022-09-17T15:19:54;16.70;99.90
9925;DHT22;5001;51.674;7.868;2022-09-17T15:22:41;16.70;99.90
9925;DHT22;5001;51.674;7.868;2022-09-17T15:25:15;16.60;99.10
9925;DHT22;5001;51.674;7.868;2022-09-17T15:27:45;16.90;96.00
9925;DHT22;5001;51.674;7.868;2022-09-17T15:30:13;17.00;91.80
9925;DHT22;5001;51.674;7.868;2022-09-17T15:32:52;16.90;87.50
9925;DHT22;5001;51.674;7.868;2022-09-17T15:37:57;16.70;96.60
9925;DHT22;5001;51.674;7.868;2022-09-17T15:40:44;16.70;99.90
9925;DHT22;5001;51.674;7.868;2022-09-17T15:43:36;16.90;90.00
9925;DHT22;5001;51.674;7.868;2022-09-17T15:46:24;17.00;49.60
9925;DHT22;5001;51.674;7.868;2022-09-17T15:48:54;17.10;92.70
9925;DHT22;5001;51.674;7.868;2022-09-17T15:51:25;17.10;96.50
9925;DHT22;5001;51.674;7.868;2022-09-17T15:53:58;16.80;99.90
9925;DHT22;5001;51.674;7.868;2022-09-17T15:56:28;16.50;99.90
9925;DHT22;5001;51.674;7.868;2022-09-17T15:59:00;16.20;99.90
9925;DHT22;5001;51.674;7.868;2022-09-17T16:06:35;15.80;99.90
9925;DHT22;5001;51.674;7.868;2022-09-17T16:09:09;15.90;99.90
9925;DHT22;5001;51.674;7.868;2022-09-17T16:11:49;15.90;99.90
9925;DHT22;5001;51.674;7.868;2022-09-17T16:14:16;15.80;99.90
9925;DHT22;5001;51.674;7.868;2022-09-17T16:16:43;15.70;99.90
9925;DHT22;5001;51.674;7.868;2022-09-17T16:19:12;15.70;99.90
9925;DHT22;5001;51.674;7.868;2022-09-17T16:21:39;15.50;99.90
9925;DHT22;5001;51.674;7.868;2022-09-17T16:24:06;15.50;99.90
9925;DHT22;5001;51.674;7.868;2022-09-17T16:26:34;15.50;99.90
9925;DHT22;5001;51.674;7.868;2022-09-17T16:29:07;15.60;99.90
9925;DHT22;5001;51.674;7.868;2022-09-17T16:31:36;15.60;99.90
9925;DHT22;5001;51.674;7.868;2022-09-17T16:34:04;15.60;99.90
9925;DHT22;5001;51.674;7.868;2022-09-17T16:36:31;15.50;99.90
9925;DHT22;5001;51.674;7.868;2022-09-17T16:38:58;15.40;99.90
9925;DHT22;5001;51.674;7.868;2022-09-17T16:41:25;15.30;99.90
9925;DHT22;5001;51.674;7.868;2022-09-17T16:43:52;15.30;99.90
9925;DHT22;5001;51.674;7.868;2022-09-17T16:46:19;15.10;99.90
9925;DHT22;5001;51.674;7.868;2022-09-17T16:48:49;15.20;99.90
9925;DHT22;5001;51.674;7.868;2022-09-17T16:51:16;15.00;99.90
9925;DHT22;5001;51.674;7.868;2022-09-17T16:53:43;14.90;99.90
9925;DHT22;5001;51.674;7.868;2022-09-17T16:56:12;14.80;99.90
9925;DHT22;5001;51.674;7.868;2022-09-17T16:58:39;14.80;99.90
9925;DHT22;5001;51.674;7.868;2022-09-17T17:01:08;14.80;99.90
9925;DHT22;5001;51.674;7.868;2022-09-17T17:03:36;14.70;99.90
9925;DHT22;5001;51.674;7.868;2022-09-17T17:06:03;14.60;99.90
9925;DHT22;5001;51.674;7.868;2022-09-17T17:08:30;14.40;99.90
9925;DHT22;5001;51.674;7.868;2022-09-17T17:10:58;14.10;99.90
9925;DHT22;5001;51.674;7.868;2022-09-17T17:13:25;14.10;99.90
9925;DHT22;5001;51.674;7.868;2022-09-17T17:15:53;14.10;99.90
9925;DHT22;5001;51.674;7.868;2022-09-17T17:18:20;14.20;99.90
9925;DHT22;5001;51.674;7.868;2022-09-17T17:20:47;14.20;1.00
9925;DHT22;5001;51.674;7.868;2022-09-17T17:23:15;14.30;99.90
9925;DHT22;5001;51.674;7.868;2022-09-17T17:25:42;14.30;99.90
9925;DHT22;5001;51.674;7.868;2022-09-17T17:28:09;14.10;99.90
9925;DHT22;5001;51.674;7.868;2022-09-17T17:30:36;14.00;1.00
9925;DHT22;5001;51.674;7.868;2022-09-17T17:33:04;14.10;1.00
9925;DHT22;5001;51.674;7.868;2022-09-17T17:35:31;14.30;1.00
9925;DHT22;5001;51.674;7.868;2022-09-17T17:37:58;14.40;99.90
9925;DHT22;5001;51.674;7.868;2022-09-17T17:40:25;14.30;1.00
9925;DHT22;5001;51.674;7.868;2022-09-17T17:42:52;14.10;99.90
9925;DHT22;5001;51.674;7.868;2022-09-17T17:45:20;14.00;99.90
9925;DHT22;5001;51.674;7.868;2022-09-17T17:47:47;14.10;1.00
9925;DHT22;5001;51.674;7.868;2022-09-17T17:50:14;14.00;1.00
9925;DHT22;5001;51.674;7.868;2022-09-17T17:52:41;14.00;1.00
9925;DHT22;5001;51.674;7.868;2022-09-17T17:55:14;14.00;1.00
9925;DHT22;5001;51.674;7.868;2022-09-17T17:57:42;13.70;1.00
9925;DHT22;5001;51.674;7.868;2022-09-17T18:00:09;13.60;1.00
9925;DHT22;5001;51.674;7.868;2022-09-17T18:02:40;13.50;1.00
9925;DHT22;5001;51.674;7.868;2022-09-17T18:05:08;13.40;1.00
9925;DHT22;5001;51.674;7.868;2022-09-17T18:07:35;13.50;1.00
9925;DHT22;5001;51.674;7.868;2022-09-17T18:10:02;13.50;1.00
9925;DHT22;5001;51.674;7.868;2022-09-17T18:12:29;13.60;1.00
9925;DHT22;5001;51.674;7.868;2022-09-17T18:14:56;13.60;1.00
9925;DHT22;5001;51.674;7.868;2022-09-17T18:17:24;13.60;1.00
9925;DHT22;5001;51.674;7.868;2022-09-17T18:19:50;13.60;1.00
9925;DHT22;5001;51.674;7.868;2022-09-17T18:22:17;13.60;1.00
9925;DHT22;5001;51.674;7.868;2022-09-17T18:24:44;13.80;1.00
9925;DHT22;5001;51.674;7.868;2022-09-17T18:27:11;13.80;1.00
9925;DHT22;5001;51.674;7.868;2022-09-17T18:29:38;13.90;1.00
9925;DHT22;5001;51.674;7.868;2022-09-17T18:32:05;13.90;1.00
9925;DHT22;5001;51.674;7.868;2022-09-17T18:34:32;13.80;1.00
9925;DHT22;5001;51.674;7.868;2022-09-17T18:37:01;13.80;1.00
9925;DHT22;5001;51.674;7.868;2022-09-17T18:39:29;13.80;1.00
9925;DHT22;5001;51.674;7.868;2022-09-17T18:42:16;13.90;99.90
9925;DHT22;5001;51.674;7.868;2022-09-17T18:44:47;13.80;99.90
9925;DHT22;5001;51.674;7.868;2022-09-17T18:47:17;13.80;99.90
9925;DHT22;5001;51.674;7.868;2022-09-17T18:49:44;13.70;99.90
9925;DHT22;5001;51.674;7.868;2022-09-17T18:52:11;13.60;99.90
9925;DHT22;5001;51.674;7.868;2022-09-17T18:54:38;13.80;1.00
9925;DHT22;5001;51.674;7.868;2022-09-17T18:57:05;13.70;99.90
9925;DHT22;5001;51.674;7.868;2022-09-17T18:59:32;13.70;1.00
9925;DHT22;5001;51.674;7.868;2022-09-17T19:01:59;13.70;1.00
9925;DHT22;5001;51.674;7.868;2022-09-17T19:04:26;13.70;99.90
9925;DHT22;5001;51.674;7.868;2022-09-17T19:06:55;13.80;1.00
9925;DHT22;5001;51.674;7.868;2022-09-17T19:09:22;13.90;1.00
9925;DHT22;5001;51.674;7.868;2022-09-17T19:11:49;13.90;99.90
9925;DHT22;5001;51.674;7.868;2022-09-17T19:14:15;13.90;99.90
9925;DHT22;5001;51.674;7.868;2022-09-17T19:16:42;13.70;1.00
9925;DHT22;5001;51.674;7.868;2022-09-17T19:19:09;13.60;1.00
9925;DHT22;5001;51.674;7.868;2022-09-17T19:21:37;13.30;1.00
9925;DHT22;5001;51.674;7.868;2022-09-17T19:24:04;13.40;1.00
9925;DHT22;5001;51.674;7.868;2022-09-17T19:26:31;13.40;1.00
9925;DHT22;5001;51.674;7.868;2022-09-17T19:28:58;13.40;1.00
9925;DHT22;5001;51.674;7.868;2022-09-17T19:31:28;13.50;1.00
9925;DHT22;5001;51.674;7.868;2022-09-17T19:33:56;13.50;1.00
9925;DHT22;5001;51.674;7.868;2022-09-17T19:36:24;13.40;1.00
9925;DHT22;5001;51.674;7.868;2022-09-17T19:38:52;13.30;1.00
9925;DHT22;5001;51.674;7.868;2022-09-17T19:41:21;13.20;1.00
9925;DHT22;5001;51.674;7.868;2022-09-17T19:43:51;13.30;1.00
9925;DHT22;5001;51.674;7.868;2022-09-17T19:46:22;13.30;1.00
9925;DHT22;5001;51.674;7.868;2022-09-17T19:48:54;13.40;1.00
9925;DHT22;5001;51.674;7.868;2022-09-17T19:51:23;13.30;1.00
9925;DHT22;5001;51.674;7.868;2022-09-17T19:53:51;13.50;1.00
9925;DHT22;5001;51.674;7.868;2022-09-17T19:56:21;13.80;1.00
9925;DHT22;5001;51.674;7.868;2022-09-17T19:58:49;13.70;1.00
9925;DHT22;5001;51.674;7.868;2022-09-17T20:01:16;13.60;1.00
9925;DHT22;5001;51.674;7.868;2022-09-17T20:03:44;13.80;1.00
9925;DHT22;5001;51.674;7.868;2022-09-17T20:06:13;13.70;1.00
9925;DHT22;5001;51.674;7.868;2022-09-17T20:08:49;13.40;1.00
9925;DHT22;5001;51.674;7.868;2022-09-17T20:11:18;13.20;1.00
9925;DHT22;5001;51.674;7.868;2022-09-17T20:13:45;13.10;1.00